sensor_id;sensor_type;location;lat;lon;timestamp;temperature;humidity
59857;DHT22;45733;52.668;6.860;2024-02-23T00:00:50;8.60;99.90
59857;DHT22;45733;52.668;6.860;2024-02-23T00:03:16;8.60;99.90
59857;DHT22;45733;52.668;6.860;2024-02-23T00:05:42;8.50;99.90
59857;DHT22;45733;52.668;6.860;2024-02-23T00:08:07;8.40;99.90
59857;DHT22;45733;52.668;6.860;2024-02-23T00:10:34;8.30;99.90
59857;DHT22;45733;52.668;6.860;2024-02-23T00:13:10;8.30;99.90
59857;DHT22;45733;52.668;6.860;2024-02-23T00:15:35;8.20;99.90
59857;DHT22;45733;52.668;6.860;2024-02-23T00:18:01;8.20;99.90
59857;DHT22;45733;52.668;6.860;2024-02-23T00:20:29;8.30;99.90
59857;DHT22;45733;52.668;6.860;2024-02-23T00:22:55;8.30;99.90
59857;DHT22;45733;52.668;6.860;2024-02-23T00:25:21;8.20;99.90
59857;DHT22;45733;52.668;6.860;2024-02-23T00:27:46;8.30;99.90
59857;DHT22;45733;52.668;6.860;2024-02-23T00:30:13;8.30;99.90
59857;DHT22;45733;52.668;6.860;2024-02-23T00:32:48;8.20;99.90
59857;DHT22;45733;52.668;6.860;2024-02-23T00:35:14;8.30;99.90
59857;DHT22;45733;52.668;6.860;2024-02-23T00:37:43;8.20;99.90
59857;DHT22;45733;52.668;6.860;2024-02-23T00:40:09;7.90;99.90
59857;DHT22;45733;52.668;6.860;2024-02-23T00:42:35;7.90;99.90
59857;DHT22;45733;52.668;6.860;2024-02-23T00:45:01;7.80;99.90
59857;DHT22;45733;52.668;6.860;2024-02-23T00:47:27;7.90;99.90
59857;DHT22;45733;52.668;6.860;2024-02-23T00:49:53;7.90;99.90
59857;DHT22;45733;52.668;6.860;2024-02-23T00:52:19;7.80;99.90
59857;DHT22;45733;52.668;6.860;2024-02-23T00:54:44;7.80;99.90
59857;DHT22;45733;52.668;6.860;2024-02-23T00:57:10;7.50;99.90
59857;DHT22;45733;52.668;6.860;2024-02-23T00:59:36;7.50;99.90
59857;DHT22;45733;52.668;6.860;2024-02-23T01:02:02;7.50;99.90
59857;DHT22;45733;52.668;6.860;2024-02-23T01:04:28;7.50;99.90
59857;DHT22;45733;52.668;6.860;2024-02-23T01:06:53;7.70;99.90
59857;DHT22;45733;52.668;6.860;2024-02-23T01:09:19;7.70;99.90
59857;DHT22;45733;52.668;6.860;2024-02-23T01:11:49;7.70;99.90
59857;DHT22;45733;52.668;6.860;2024-02-23T01:14:15;7.50;99.90
59857;DHT22;45733;52.668;6.860;2024-02-23T01:16:41;7.40;99.90
59857;DHT22;45733;52.668;6.860;2024-02-23T01:19:09;7.30;99.90
59857;DHT22;45733;52.668;6.860;2024-02-23T01:21:35;7.30;99.90
59857;DHT22;45733;52.668;6.860;2024-02-23T01:24:00;7.30;99.90
59857;DHT22;45733;52.668;6.860;2024-02-23T01:26:26;7.20;99.90
59857;DHT22;45733;52.668;6.860;2024-02-23T01:28:53;7.40;99.90
59857;DHT22;45733;52.668;6.860;2024-02-23T01:31:19;7.50;99.90
59857;DHT22;45733;52.668;6.860;2024-02-23T01:33:44;7.50;99.90
59857;DHT22;45733;52.668;6.860;2024-02-23T01:36:10;7.50;99.90
59857;DHT22;45733;52.668;6.860;2024-02-23T01:38:36;7.70;99.90
59857;DHT22;45733;52.668;6.860;2024-02-23T01:41:01;7.60;99.90
59857;DHT22;45733;52.668;6.860;2024-02-23T01:43:27;7.70;99.90
59857;DHT22;45733;52.668;6.860;2024-02-23T01:45:54;7.70;99.90
59857;DHT22;45733;52.668;6.860;2024-02-23T01:48:20;7.70;99.90
59857;DHT22;45733;52.668;6.860;2024-02-23T01:50:46;7.70;99.90
59857;DHT22;45733;52.668;6.860;2024-02-23T01:53:12;7.60;99.90
59857;DHT22;45733;52.668;6.860;2024-02-23T01:55:41;7.70;99.90
59857;DHT22;45733;52.668;6.860;2024-02-23T01:58:07;7.70;99.90
59857;DHT22;45733;52.668;6.860;2024-02-23T02:00:34;7.70;99.90
59857;DHT22;45733;52.668;6.860;2024-02-23T02:03:00;7.80;99.90
59857;DHT22;45733;52.668;6.860;2024-02-23T02:05:26;7.80;99.90
59857;DHT22;45733;52.668;6.860;2024-02-23T02:07:53;7.70;99.90
59857;DHT22;45733;52.668;6.860;2024-02-23T02:10:24;7.90;99.90
59857;DHT22;45733;52.668;6.860;2024-02-23T02:12:50;7.70;99.90
59857;DHT22;45733;52.668;6.860;2024-02-23T02:15:16;7.90;99.90
59857;DHT22;45733;52.668;6.860;2024-02-23T02:17:42;8.00;99.90
59857;DHT22;45733;52.668;6.860;2024-02-23T02:20:11;8.00;99.90
59857;DHT22;45733;52.668;6.860;2024-02-23T02:22:37;7.80;99.90
59857;DHT22;45733;52.668;6.860;2024-02-23T02:25:04;7.90;99.90
59857;DHT22;45733;52.668;6.860;2024-02-23T02:27:29;7.80;99.90
59857;DHT22;45733;52.668;6.860;2024-02-23T02:29:55;7.90;99.90
59857;DHT22;45733;52.668;6.860;2024-02-23T02:32:21;7.80;99.90
59857;DHT22;45733;52.668;6.860;2024-02-23T02:34:47;7.90;99.90
59857;DHT22;45733;52.668;6.860;2024-02-23T02:37:12;7.90;99.90
59857;DHT22;45733;52.668;6.860;2024-02-23T02:39:38;7.80;99.90
59857;DHT22;45733;52.668;6.860;2024-02-23T02:42:04;7.80;99.90
59857;DHT22;45733;52.668;6.860;2024-02-23T02:44:29;7.80;99.90
59857;DHT22;45733;52.668;6.860;2024-02-23T02:46:56;7.90;99.90
59857;DHT22;45733;52.668;6.860;2024-02-23T02:49:22;8.10;99.90
59857;DHT22;45733;52.668;6.860;2024-02-23T02:51:48;8.00;99.90
59857;DHT22;45733;52.668;6.860;2024-02-23T02:54:13;8.00;99.90
59857;DHT22;45733;52.668;6.860;2024-02-23T02:56:43;8.00;99.90
59857;DHT22;45733;52.668;6.860;2024-02-23T02:59:09;7.80;99.90
59857;DHT22;45733;52.668;6.860;2024-02-23T03:01:36;7.80;99.90
59857;DHT22;45733;52.668;6.860;2024-02-23T03:04:01;7.60;99.90
59857;DHT22;45733;52.668;6.860;2024-02-23T03:06:27;7.80;99.90
59857;DHT22;45733;52.668;6.860;2024-02-23T03:08:53;7.80;99.90
59857;DHT22;45733;52.668;6.860;2024-02-23T03:11:18;7.70;99.90
59857;DHT22;45733;52.668;6.860;2024-02-23T03:13:44;7.80;99.90
59857;DHT22;45733;52.668;6.860;2024-02-23T03:16:20;7.60;99.90
59857;DHT22;45733;52.668;6.860;2024-02-23T03:18:46;7.70;99.90
59857;DHT22;45733;52.668;6.860;2024-02-23T03:21:12;7.70;99.90
59857;DHT22;45733;52.668;6.860;2024-02-23T03:23:40;7.80;99.90
59857;DHT22;45733;52.668;6.860;2024-02-23T03:26:07;7.70;99.90
59857;DHT22;45733;52.668;6.860;2024-02-23T03:28:32;7.70;99.90
59857;DHT22;45733;52.668;6.860;2024-02-23T03:30:59;7.80;99.90
59857;DHT22;45733;52.668;6.860;2024-02-23T03:33:25;7.70;99.90
59857;DHT22;45733;52.668;6.860;2024-02-23T03:35:51;7.70;99.90
59857;DHT22;45733;52.668;6.860;2024-02-23T03:38:16;7.80;99.90
59857;DHT22;45733;52.668;6.860;2024-02-23T03:40:42;7.70;99.90
59857;DHT22;45733;52.668;6.860;2024-02-23T03:43:08;7.70;99.90
59857;DHT22;45733;52.668;6.860;2024-02-23T03:45:33;7.70;99.90
59857;DHT22;45733;52.668;6.860;2024-02-23T03:48:00;7.60;99.90
59857;DHT22;45733;52.668;6.860;2024-02-23T03:50:26;7.60;99.90
59857;DHT22;45733;52.668;6.860;2024-02-23T03:52:52;7.60;99.90
59857;DHT22;45733;52.668;6.860;2024-02-23T03:55:18;7.60;99.90
59857;DHT22;45733;52.668;6.860;2024-02-23T03:57:43;7.70;99.90
59857;DHT22;45733;52.668;6.860;2024-02-23T04:00:09;7.70;99.90
59857;DHT22;45733;52.668;6.860;2024-02-23T04:02:35;7.50;99.90
59857;DHT22;45733;52.668;6.860;2024-02-23T04:05:01;7.50;99.90
59857;DHT22;45733;52.668;6.860;2024-02-23T04:07:27;7.60;99.90
59857;DHT22;45733;52.668;6.860;2024-02-23T04:09:53;7.50;99.90
59857;DHT22;45733;52.668;6.860;2024-02-23T04:12:21;7.80;99.90
59857;DHT22;45733;52.668;6.860;2024-02-23T04:14:46;7.70;99.90
59857;DHT22;45733;52.668;6.860;2024-02-23T04:17:13;7.70;99.90
59857;DHT22;45733;52.668;6.860;2024-02-23T04:19:40;7.70;99.90
59857;DHT22;45733;52.668;6.860;2024-02-23T04:22:06;7.60;99.90
59857;DHT22;45733;52.668;6.860;2024-02-23T04:24:36;7.60;99.90
59857;DHT22;45733;52.668;6.860;2024-02-23T04:27:02;7.50;99.90
59857;DHT22;45733;52.668;6.860;2024-02-23T04:29:28;7.50;99.90
59857;DHT22;45733;52.668;6.860;2024-02-23T04:31:53;7.40;99.90
59857;DHT22;45733;52.668;6.860;2024-02-23T04:34:19;7.30;99.90
59857;DHT22;45733;52.668;6.860;2024-02-23T04:36:44;7.40;99.90
59857;DHT22;45733;52.668;6.860;2024-02-23T04:39:17;7.30;99.90
59857;DHT22;45733;52.668;6.860;2024-02-23T04:41:42;7.40;99.90
59857;DHT22;45733;52.668;6.860;2024-02-23T04:44:08;7.40;99.90
59857;DHT22;45733;52.668;6.860;2024-02-23T04:46:34;7.50;99.90
59857;DHT22;45733;52.668;6.860;2024-02-23T04:49:01;7.70;99.90
59857;DHT22;45733;52.668;6.860;2024-02-23T04:51:27;7.60;99.90
59857;DHT22;45733;52.668;6.860;2024-02-23T04:53:52;7.70;99.90
59857;DHT22;45733;52.668;6.860;2024-02-23T04:56:18;7.80;99.90
59857;DHT22;45733;52.668;6.860;2024-02-23T04:58:44;7.70;99.90
59857;DHT22;45733;52.668;6.860;2024-02-23T05:01:10;7.80;99.90
59857;DHT22;45733;52.668;6.860;2024-02-23T05:03:36;7.90;99.90
59857;DHT22;45733;52.668;6.860;2024-02-23T05:06:03;7.70;99.90
59857;DHT22;45733;52.668;6.860;2024-02-23T05:08:29;7.70;99.90
59857;DHT22;45733;52.668;6.860;2024-02-23T05:10:56;7.70;99.90
59857;DHT22;45733;52.668;6.860;2024-02-23T05:13:23;7.60;99.90
59857;DHT22;45733;52.668;6.860;2024-02-23T05:15:48;7.60;99.90
59857;DHT22;45733;52.668;6.860;2024-02-23T05:18:14;7.70;99.90
59857;DHT22;45733;52.668;6.860;2024-02-23T05:20:40;7.70;99.90
59857;DHT22;45733;52.668;6.860;2024-02-23T05:23:06;7.70;99.90
59857;DHT22;45733;52.668;6.860;2024-02-23T05:25:31;7.70;99.90
59857;DHT22;45733;52.668;6.860;2024-02-23T05:27:57;7.80;99.90
59857;DHT22;45733;52.668;6.860;2024-02-23T05:30:23;7.80;99.90
59857;DHT22;45733;52.668;6.860;2024-02-23T05:32:48;7.80;99.90
59857;DHT22;45733;52.668;6.860;2024-02-23T05:35:14;7.80;99.90
59857;DHT22;45733;52.668;6.860;2024-02-23T05:37:41;7.90;99.90
59857;DHT22;45733;52.668;6.860;2024-02-23T05:40:07;7.90;99.90
59857;DHT22;45733;52.668;6.860;2024-02-23T05:42:39;7.90;99.90
59857;DHT22;45733;52.668;6.860;2024-02-23T05:45:06;8.00;99.90
59857;DHT22;45733;52.668;6.860;2024-02-23T05:47:40;7.90;99.90
59857;DHT22;45733;52.668;6.860;2024-02-23T05:50:08;7.90;99.90
59857;DHT22;45733;52.668;6.860;2024-02-23T05:52:35;8.00;99.90
59857;DHT22;45733;52.668;6.860;2024-02-23T05:55:02;8.00;99.90
59857;DHT22;45733;52.668;6.860;2024-02-23T05:57:29;8.10;99.90
59857;DHT22;45733;52.668;6.860;2024-02-23T05:59:55;8.10;97.60
59857;DHT22;45733;52.668;6.860;2024-02-23T06:02:24;8.00;1.00
59857;DHT22;45733;52.668;6.860;2024-02-23T06:04:50;8.00;1.00
59857;DHT22;45733;52.668;6.860;2024-02-23T06:07:16;8.00;99.90
59857;DHT22;45733;52.668;6.860;2024-02-23T06:09:44;7.90;99.90
59857;DHT22;45733;52.668;6.860;2024-02-23T06:12:10;7.80;99.90
59857;DHT22;45733;52.668;6.860;2024-02-23T06:14:36;7.90;99.90
59857;DHT22;45733;52.668;6.860;2024-02-23T06:17:02;7.90;99.90
59857;DHT22;45733;52.668;6.860;2024-02-23T06:19:28;8.00;99.90
59857;DHT22;45733;52.668;6.860;2024-02-23T06:21:54;8.00;99.90
59857;DHT22;45733;52.668;6.860;2024-02-23T06:24:19;8.00;99.90
59857;DHT22;45733;52.668;6.860;2024-02-23T06:26:46;8.00;99.90
59857;DHT22;45733;52.668;6.860;2024-02-23T06:29:13;8.10;99.90
59857;DHT22;45733;52.668;6.860;2024-02-23T06:31:39;8.10;99.90
59857;DHT22;45733;52.668;6.860;2024-02-23T06:34:05;8.10;99.90
59857;DHT22;45733;52.668;6.860;2024-02-23T06:36:31;8.10;99.90
59857;DHT22;45733;52.668;6.860;2024-02-23T06:38:57;8.10;99.90
59857;DHT22;45733;52.668;6.860;2024-02-23T06:41:23;8.10;99.90
59857;DHT22;45733;52.668;6.860;2024-02-23T06:43:48;8.20;99.90
59857;DHT22;45733;52.668;6.860;2024-02-23T06:46:14;8.20;74.90
59857;DHT22;45733;52.668;6.860;2024-02-23T06:48:40;8.20;99.80
59857;DHT22;45733;52.668;6.860;2024-02-23T06:51:06;8.20;99.90
59857;DHT22;45733;52.668;6.860;2024-02-23T06:53:35;8.20;99.90
59857;DHT22;45733;52.668;6.860;2024-02-23T06:56:01;8.20;17.20
59857;DHT22;45733;52.668;6.860;2024-02-23T06:58:27;8.20;1.00
59857;DHT22;45733;52.668;6.860;2024-02-23T07:00:53;8.20;1.00
59857;DHT22;45733;52.668;6.860;2024-02-23T07:03:19;8.30;1.00
59857;DHT22;45733;52.668;6.860;2024-02-23T07:05:44;8.30;1.00
59857;DHT22;45733;52.668;6.860;2024-02-23T07:08:15;8.30;1.00
59857;DHT22;45733;52.668;6.860;2024-02-23T07:10:41;8.30;99.90
59857;DHT22;45733;52.668;6.860;2024-02-23T07:13:07;8.40;99.90
59857;DHT22;45733;52.668;6.860;2024-02-23T07:15:33;8.30;99.90
59857;DHT22;45733;52.668;6.860;2024-02-23T07:18:01;8.40;99.90
59857;DHT22;45733;52.668;6.860;2024-02-23T07:20:26;8.40;99.90
59857;DHT22;45733;52.668;6.860;2024-02-23T07:22:52;8.40;99.90
59857;DHT22;45733;52.668;6.860;2024-02-23T07:25:19;8.50;99.90
59857;DHT22;45733;52.668;6.860;2024-02-23T07:27:48;8.40;99.90
59857;DHT22;45733;52.668;6.860;2024-02-23T07:30:15;8.50;99.90
59857;DHT22;45733;52.668;6.860;2024-02-23T07:32:41;8.50;99.90
59857;DHT22;45733;52.668;6.860;2024-02-23T07:35:08;8.50;86.10
59857;DHT22;45733;52.668;6.860;2024-02-23T07:37:33;8.50;99.90
59857;DHT22;45733;52.668;6.860;2024-02-23T07:39:59;8.60;50.30
59857;DHT22;45733;52.668;6.860;2024-02-23T07:42:25;8.60;3.30
59857;DHT22;45733;52.668;6.860;2024-02-23T07:44:51;8.70;43.70
59857;DHT22;45733;52.668;6.860;2024-02-23T07:47:16;8.70;1.00
59857;DHT22;45733;52.668;6.860;2024-02-23T07:49:43;8.80;1.00
59857;DHT22;45733;52.668;6.860;2024-02-23T07:52:08;8.90;1.00
59857;DHT22;45733;52.668;6.860;2024-02-23T07:54:34;9.10;1.00
59857;DHT22;45733;52.668;6.860;2024-02-23T07:57:01;9.20;99.90
59857;DHT22;45733;52.668;6.860;2024-02-23T07:59:34;9.20;99.90
59857;DHT22;45733;52.668;6.860;2024-02-23T08:02:02;9.30;99.90
59857;DHT22;45733;52.668;6.860;2024-02-23T08:04:27;9.40;99.90
59857;DHT22;45733;52.668;6.860;2024-02-23T08:06:53;9.80;99.90
59857;DHT22;45733;52.668;6.860;2024-02-23T08:09:18;9.80;99.90
59857;DHT22;45733;52.668;6.860;2024-02-23T08:11:44;9.60;1.00
59857;DHT22;45733;52.668;6.860;2024-02-23T08:14:11;9.60;1.00
59857;DHT22;45733;52.668;6.860;2024-02-23T08:16:37;9.60;1.00
59857;DHT22;45733;52.668;6.860;2024-02-23T08:19:03;9.60;1.00
59857;DHT22;45733;52.668;6.860;2024-02-23T08:21:29;9.70;1.00
59857;DHT22;45733;52.668;6.860;2024-02-23T08:23:54;10.00;99.90
59857;DHT22;45733;52.668;6.860;2024-02-23T08:26:20;10.20;99.90
59857;DHT22;45733;52.668;6.860;2024-02-23T08:28:46;10.30;99.90
59857;DHT22;45733;52.668;6.860;2024-02-23T08:31:11;10.40;99.90
59857;DHT22;45733;52.668;6.860;2024-02-23T08:33:37;9.90;99.90
59857;DHT22;45733;52.668;6.860;2024-02-23T08:36:03;9.80;99.90
59857;DHT22;45733;52.668;6.860;2024-02-23T08:38:32;9.80;99.90
59857;DHT22;45733;52.668;6.860;2024-02-23T08:40:57;9.90;99.90
59857;DHT22;45733;52.668;6.860;2024-02-23T08:43:24;9.90;99.90
59857;DHT22;45733;52.668;6.860;2024-02-23T08:45:50;10.30;99.90
59857;DHT22;45733;52.668;6.860;2024-02-23T08:48:15;10.60;99.90
59857;DHT22;45733;52.668;6.860;2024-02-23T08:50:41;10.40;99.90
59857;DHT22;45733;52.668;6.860;2024-02-23T08:53:07;10.20;99.90
59857;DHT22;45733;52.668;6.860;2024-02-23T08:55:32;10.20;99.90
59857;DHT22;45733;52.668;6.860;2024-02-23T08:57:59;10.40;99.90
59857;DHT22;45733;52.668;6.860;2024-02-23T09:00:24;10.50;99.90
59857;DHT22;45733;52.668;6.860;2024-02-23T09:02:50;10.50;60.40
59857;DHT22;45733;52.668;6.860;2024-02-23T09:05:16;10.50;93.20
59857;DHT22;45733;52.668;6.860;2024-02-23T09:07:42;10.40;76.20
59857;DHT22;45733;52.668;6.860;2024-02-23T09:10:07;10.40;31.40
59857;DHT22;45733;52.668;6.860;2024-02-23T09:12:34;10.30;30.00
59857;DHT22;45733;52.668;6.860;2024-02-23T09:14:59;10.30;44.30
59857;DHT22;45733;52.668;6.860;2024-02-23T09:17:25;10.20;21.30
59857;DHT22;45733;52.668;6.860;2024-02-23T09:19:51;10.10;27.40
59857;DHT22;45733;52.668;6.860;2024-02-23T09:22:17;10.10;1.00
59857;DHT22;45733;52.668;6.860;2024-02-23T09:24:43;10.20;36.60
59857;DHT22;45733;52.668;6.860;2024-02-23T09:27:09;10.30;1.00
59857;DHT22;45733;52.668;6.860;2024-02-23T09:29:34;10.30;1.00
59857;DHT22;45733;52.668;6.860;2024-02-23T09:32:00;10.30;1.00
59857;DHT22;45733;52.668;6.860;2024-02-23T09:34:26;10.40;4.20
59857;DHT22;45733;52.668;6.860;2024-02-23T09:36:52;10.40;27.70
59857;DHT22;45733;52.668;6.860;2024-02-23T09:39:18;10.40;50.30
59857;DHT22;45733;52.668;6.860;2024-02-23T09:41:45;10.30;1.00
59857;DHT22;45733;52.668;6.860;2024-02-23T09:44:14;10.40;1.00
59857;DHT22;45733;52.668;6.860;2024-02-23T09:46:43;10.50;7.30
59857;DHT22;45733;52.668;6.860;2024-02-23T09:49:11;10.60;1.00
59857;DHT22;45733;52.668;6.860;2024-02-23T09:51:39;10.60;1.00
59857;DHT22;45733;52.668;6.860;2024-02-23T09:54:05;10.70;1.00
59857;DHT22;45733;52.668;6.860;2024-02-23T09:56:30;11.00;1.00
59857;DHT22;45733;52.668;6.860;2024-02-23T09:59:00;11.00;1.00
59857;DHT22;45733;52.668;6.860;2024-02-23T10:01:31;10.90;1.00
59857;DHT22;45733;52.668;6.860;2024-02-23T10:04:00;10.80;1.00
59857;DHT22;45733;52.668;6.860;2024-02-23T10:06:27;10.60;1.00
59857;DHT22;45733;52.668;6.860;2024-02-23T10:08:56;10.60;1.00
59857;DHT22;45733;52.668;6.860;2024-02-23T10:11:22;10.60;1.00
59857;DHT22;45733;52.668;6.860;2024-02-23T10:13:48;10.70;1.00
59857;DHT22;45733;52.668;6.860;2024-02-23T10:16:21;10.70;1.00
59857;DHT22;45733;52.668;6.860;2024-02-23T10:18:48;10.70;1.00
59857;DHT22;45733;52.668;6.860;2024-02-23T10:21:17;10.70;1.00
59857;DHT22;45733;52.668;6.860;2024-02-23T10:23:47;10.60;1.00
59857;DHT22;45733;52.668;6.860;2024-02-23T10:26:13;10.60;99.90
59857;DHT22;45733;52.668;6.860;2024-02-23T10:28:45;10.50;1.00
59857;DHT22;45733;52.668;6.860;2024-02-23T10:31:12;10.60;1.00
59857;DHT22;45733;52.668;6.860;2024-02-23T10:33:38;10.50;1.00
59857;DHT22;45733;52.668;6.860;2024-02-23T10:36:05;10.40;1.00
59857;DHT22;45733;52.668;6.860;2024-02-23T10:38:32;10.30;1.00
59857;DHT22;45733;52.668;6.860;2024-02-23T10:40:58;10.30;1.00
59857;DHT22;45733;52.668;6.860;2024-02-23T10:43:33;10.30;1.00
59857;DHT22;45733;52.668;6.860;2024-02-23T10:45:59;10.30;1.00
59857;DHT22;45733;52.668;6.860;2024-02-23T10:48:28;10.30;1.00
59857;DHT22;45733;52.668;6.860;2024-02-23T10:50:56;10.30;1.00
59857;DHT22;45733;52.668;6.860;2024-02-23T10:53:24;10.40;1.00
59857;DHT22;45733;52.668;6.860;2024-02-23T10:55:56;10.40;1.00
59857;DHT22;45733;52.668;6.860;2024-02-23T10:58:23;10.40;1.00
59857;DHT22;45733;52.668;6.860;2024-02-23T11:00:49;10.30;1.00
59857;DHT22;45733;52.668;6.860;2024-02-23T11:03:15;10.30;1.00
59857;DHT22;45733;52.668;6.860;2024-02-23T11:05:42;10.30;1.00
59857;DHT22;45733;52.668;6.860;2024-02-23T11:08:08;10.30;1.00
59857;DHT22;45733;52.668;6.860;2024-02-23T11:10:49;10.30;1.00
59857;DHT22;45733;52.668;6.860;2024-02-23T11:13:16;10.40;1.00
59857;DHT22;45733;52.668;6.860;2024-02-23T11:15:42;10.30;1.00
59857;DHT22;45733;52.668;6.860;2024-02-23T11:18:32;10.30;1.00
59857;DHT22;45733;52.668;6.860;2024-02-23T11:21:00;10.30;1.00
59857;DHT22;45733;52.668;6.860;2024-02-23T11:23:27;10.30;63.50
59857;DHT22;45733;52.668;6.860;2024-02-23T11:28:30;10.40;77.40
59857;DHT22;45733;52.668;6.860;2024-02-23T11:30:57;10.50;90.60
59857;DHT22;45733;52.668;6.860;2024-02-23T11:33:28;10.50;99.20
59857;DHT22;45733;52.668;6.860;2024-02-23T11:36:05;10.60;99.90
59857;DHT22;45733;52.668;6.860;2024-02-23T11:38:32;10.50;99.90
59857;DHT22;45733;52.668;6.860;2024-02-23T11:41:02;10.50;99.90
59857;DHT22;45733;52.668;6.860;2024-02-23T11:43:29;10.20;99.90
59857;DHT22;45733;52.668;6.860;2024-02-23T11:45:54;10.00;1.00
59857;DHT22;45733;52.668;6.860;2024-02-23T11:48:20;9.90;1.00
59857;DHT22;45733;52.668;6.860;2024-02-23T11:50:48;9.80;99.90
59857;DHT22;45733;52.668;6.860;2024-02-23T11:53:14;9.70;99.90
59857;DHT22;45733;52.668;6.860;2024-02-23T11:55:40;9.60;1.00
59857;DHT22;45733;52.668;6.860;2024-02-23T11:58:06;9.60;57.00
59857;DHT22;45733;52.668;6.860;2024-02-23T12:00:32;9.60;91.00
59857;DHT22;45733;52.668;6.860;2024-02-23T12:02:58;9.80;99.90
59857;DHT22;45733;52.668;6.860;2024-02-23T12:05:24;9.80;99.90
59857;DHT22;45733;52.668;6.860;2024-02-23T12:07:50;9.80;99.90
59857;DHT22;45733;52.668;6.860;2024-02-23T12:10:16;9.80;99.90
59857;DHT22;45733;52.668;6.860;2024-02-23T12:12:42;9.80;99.90
59857;DHT22;45733;52.668;6.860;2024-02-23T12:15:08;9.70;99.90
59857;DHT22;45733;52.668;6.860;2024-02-23T12:17:37;9.70;99.90
59857;DHT22;45733;52.668;6.860;2024-02-23T12:20:03;9.70;99.90
59857;DHT22;45733;52.668;6.860;2024-02-23T12:22:29;9.80;99.90
59857;DHT22;45733;52.668;6.860;2024-02-23T12:24:59;9.70;99.90
59857;DHT22;45733;52.668;6.860;2024-02-23T12:27:26;9.70;99.90
59857;DHT22;45733;52.668;6.860;2024-02-23T12:29:53;9.60;99.90
59857;DHT22;45733;52.668;6.860;2024-02-23T12:32:20;9.50;99.90
59857;DHT22;45733;52.668;6.860;2024-02-23T12:34:47;9.60;1.00
59857;DHT22;45733;52.668;6.860;2024-02-23T12:37:16;9.70;1.00
59857;DHT22;45733;52.668;6.860;2024-02-23T12:39:43;9.60;1.00
59857;DHT22;45733;52.668;6.860;2024-02-23T12:42:09;9.60;99.90
59857;DHT22;45733;52.668;6.860;2024-02-23T12:44:35;9.70;99.90
59857;DHT22;45733;52.668;6.860;2024-02-23T12:47:01;9.60;99.90
59857;DHT22;45733;52.668;6.860;2024-02-23T12:49:27;9.60;99.90
59857;DHT22;45733;52.668;6.860;2024-02-23T12:51:52;9.60;99.90
59857;DHT22;45733;52.668;6.860;2024-02-23T12:54:18;9.70;87.30
59857;DHT22;45733;52.668;6.860;2024-02-23T12:56:44;9.70;1.00
59857;DHT22;45733;52.668;6.860;2024-02-23T12:59:09;9.70;1.00
59857;DHT22;45733;52.668;6.860;2024-02-23T13:01:38;9.70;1.00
59857;DHT22;45733;52.668;6.860;2024-02-23T13:04:05;9.80;1.00
59857;DHT22;45733;52.668;6.860;2024-02-23T13:06:40;9.80;1.00
59857;DHT22;45733;52.668;6.860;2024-02-23T13:09:06;9.90;1.00
59857;DHT22;45733;52.668;6.860;2024-02-23T13:11:38;9.90;1.00
59857;DHT22;45733;52.668;6.860;2024-02-23T13:14:03;10.00;1.00
59857;DHT22;45733;52.668;6.860;2024-02-23T13:16:29;10.00;1.00
59857;DHT22;45733;52.668;6.860;2024-02-23T13:18:55;10.00;1.00
59857;DHT22;45733;52.668;6.860;2024-02-23T13:21:21;10.00;1.00
59857;DHT22;45733;52.668;6.860;2024-02-23T13:23:52;10.00;1.00
59857;DHT22;45733;52.668;6.860;2024-02-23T13:26:18;10.00;1.00
59857;DHT22;45733;52.668;6.860;2024-02-23T13:28:44;10.00;99.90
59857;DHT22;45733;52.668;6.860;2024-02-23T13:31:10;10.00;99.90
59857;DHT22;45733;52.668;6.860;2024-02-23T13:33:36;10.00;99.90
59857;DHT22;45733;52.668;6.860;2024-02-23T13:36:01;9.90;99.90
59857;DHT22;45733;52.668;6.860;2024-02-23T13:38:27;9.90;99.90
59857;DHT22;45733;52.668;6.860;2024-02-23T13:40:53;9.90;1.00
59857;DHT22;45733;52.668;6.860;2024-02-23T13:43:19;9.90;1.00
59857;DHT22;45733;52.668;6.860;2024-02-23T13:45:52;9.90;1.00
59857;DHT22;45733;52.668;6.860;2024-02-23T13:48:18;9.90;1.00
59857;DHT22;45733;52.668;6.860;2024-02-23T13:50:48;10.00;1.00
59857;DHT22;45733;52.668;6.860;2024-02-23T13:53:14;10.00;1.00
59857;DHT22;45733;52.668;6.860;2024-02-23T13:55:40;10.00;99.90
59857;DHT22;45733;52.668;6.860;2024-02-23T13:58:08;10.00;99.90
59857;DHT22;45733;52.668;6.860;2024-02-23T14:00:37;10.00;1.00
59857;DHT22;45733;52.668;6.860;2024-02-23T14:03:03;10.00;1.00
59857;DHT22;45733;52.668;6.860;2024-02-23T14:05:29;10.10;1.00
59857;DHT22;45733;52.668;6.860;2024-02-23T14:07:54;10.10;1.00
59857;DHT22;45733;52.668;6.860;2024-02-23T14:10:20;10.10;1.00
59857;DHT22;45733;52.668;6.860;2024-02-23T14:12:46;10.10;1.00
59857;DHT22;45733;52.668;6.860;2024-02-23T14:15:12;10.20;1.00
59857;DHT22;45733;52.668;6.860;2024-02-23T14:17:41;10.20;1.00
59857;DHT22;45733;52.668;6.860;2024-02-23T14:20:07;10.20;1.00
59857;DHT22;45733;52.668;6.860;2024-02-23T14:22:32;10.30;1.00
59857;DHT22;45733;52.668;6.860;2024-02-23T14:24:59;10.30;99.90
59857;DHT22;45733;52.668;6.860;2024-02-23T14:27:24;10.30;99.90
59857;DHT22;45733;52.668;6.860;2024-02-23T14:29:50;10.30;99.90
59857;DHT22;45733;52.668;6.860;2024-02-23T14:32:18;10.30;99.90
59857;DHT22;45733;52.668;6.860;2024-02-23T14:34:44;10.40;99.90
59857;DHT22;45733;52.668;6.860;2024-02-23T14:37:09;10.40;99.90
59857;DHT22;45733;52.668;6.860;2024-02-23T14:39:35;10.40;99.90
59857;DHT22;45733;52.668;6.860;2024-02-23T14:42:01;10.40;99.90
59857;DHT22;45733;52.668;6.860;2024-02-23T14:44:27;10.40;99.90
59857;DHT22;45733;52.668;6.860;2024-02-23T14:46:53;10.40;99.90
59857;DHT22;45733;52.668;6.860;2024-02-23T14:49:18;10.40;99.90
59857;DHT22;45733;52.668;6.860;2024-02-23T14:51:44;10.50;99.90
59857;DHT22;45733;52.668;6.860;2024-02-23T14:54:12;10.50;99.90
59857;DHT22;45733;52.668;6.860;2024-02-23T14:56:41;10.50;99.90
59857;DHT22;45733;52.668;6.860;2024-02-23T14:59:07;10.50;99.90
59857;DHT22;45733;52.668;6.860;2024-02-23T15:01:40;10.50;99.90
59857;DHT22;45733;52.668;6.860;2024-02-23T15:04:08;10.60;1.00
59857;DHT22;45733;52.668;6.860;2024-02-23T15:06:34;10.60;1.00
59857;DHT22;45733;52.668;6.860;2024-02-23T15:09:03;10.60;1.00
59857;DHT22;45733;52.668;6.860;2024-02-23T15:11:29;10.50;1.00
59857;DHT22;45733;52.668;6.860;2024-02-23T15:13:55;10.40;1.00
59857;DHT22;45733;52.668;6.860;2024-02-23T15:16:29;10.40;1.00
59857;DHT22;45733;52.668;6.860;2024-02-23T15:18:58;10.30;1.00
59857;DHT22;45733;52.668;6.860;2024-02-23T15:21:24;10.30;1.00
59857;DHT22;45733;52.668;6.860;2024-02-23T15:23:51;10.40;1.00
59857;DHT22;45733;52.668;6.860;2024-02-23T15:26:16;10.50;1.00
59857;DHT22;45733;52.668;6.860;2024-02-23T15:28:42;10.50;1.00
59857;DHT22;45733;52.668;6.860;2024-02-23T15:31:08;10.50;1.00
59857;DHT22;45733;52.668;6.860;2024-02-23T15:33:34;10.50;1.00
59857;DHT22;45733;52.668;6.860;2024-02-23T15:36:01;10.50;1.00
59857;DHT22;45733;52.668;6.860;2024-02-23T15:38:31;10.50;1.00
59857;DHT22;45733;52.668;6.860;2024-02-23T15:40:56;10.40;1.00
59857;DHT22;45733;52.668;6.860;2024-02-23T15:43:22;10.40;1.00